Archival Weather

Granbury Rgnl

Granbury, Texas (KGDJ)

Report from: Monday, January 29, 2024 8:35 AM UTC
Current time: Tuesday, June 18, 2024 12:43 PM UTC

Current weather – Weather history – Daily summaries
Weather forecast

Temperature3.1°C (37.6°F)
Wind chill1.7°C (35.1°F)
Dew point1.4°C (34.5°F)
Winds 3 kts (1.5 m/s, 3.5 mph) East-Southeast (110°)
Visibility10 mi. (16.1 km)
Clouds Sky clear
Altimeter30.34 in.Hg (1027 mB)
Relative humidity89 %
Density altitude-1,825 ft. (-556 m)
Remarks Fully automated report
Automated weather observing station with precipitation discriminator
Flight conditions Visual Meteorological Conditions
Raw dataKGDJ 290835Z AUTO 11003KT 10SM CLR 03/01 A3034 RMK AO2 T00310014
An error has occurred. This application may no longer respond until reloaded. Reload 🗙